EWG6M EDDH-EGCC
Flight info
| Callsign | EWG6M |
|---|---|
| Flight time | 1h 13m |
| Altitude | 38000 |
| Route | WSN5G WSN N125 ITMIZ DCT MIMVA DCT OTBED |
| Aircraft | A21N/M-SDE2E3FGHIRWXY/LB1 |
Departure
| Time | 2026-04-22 12:34 |
|---|---|
| Airport | Hamburg Helmut Schmidt Airport (EDDH) |
Arrival
| Time | 2026-04-22 13:47 |
|---|---|
| Airport | Manchester Airport (EGCC) |
| Time | Latitude | Longitude | Altitude | Speed | Heading |
|---|---|---|---|---|---|
| 2026-04-22 12:20 | 53.63076 | 10.00367 | 52 ft | 0 kts | 99° |
| 2026-04-22 12:28 | 53.63077 | 10.00350 | 52 ft | 2 kts | 99° |
| 2026-04-22 12:29 | 53.63080 | 10.00323 | 52 ft | 2 kts | 99° |
| 2026-04-22 12:29 | 53.63083 | 10.00296 | 51 ft | 2 kts | 99° |
| 2026-04-22 12:29 | 53.63085 | 10.00269 | 49 ft | 2 kts | 98° |
| 2026-04-22 12:29 | 53.63087 | 10.00242 | 49 ft | 2 kts | 97° |
| 2026-04-22 12:30 | 53.63099 | 10.00195 | 47 ft | 2 kts | 168° |
| 2026-04-22 12:30 | 53.63109 | 10.00193 | 48 ft | 0 kts | 174° |
| 2026-04-22 12:31 | 53.63106 | 10.00193 | 47 ft | 1 kts | 175° |
| 2026-04-22 12:31 | 53.63081 | 10.00189 | 47 ft | 7 kts | 197° |
| 2026-04-22 12:31 | 53.63020 | 10.00131 | 52 ft | 12 kts | 211° |
| 2026-04-22 12:32 | 53.62944 | 10.00048 | 52 ft | 13 kts | 222° |
| 2026-04-22 12:32 | 53.62900 | 9.99923 | 51 ft | 3 kts | 243° |
| 2026-04-22 12:32 | 53.62865 | 9.99789 | 49 ft | 11 kts | 265° |
| 2026-04-22 12:33 | 53.62896 | 9.99720 | 53 ft | 0 kts | 332° |
| 2026-04-22 12:33 | 53.62982 | 9.99642 | 52 ft | 48 kts | 332° |
| 2026-04-22 12:33 | 53.63524 | 9.99180 | 51 ft | 128 kts | 333° |
| 2026-04-22 12:33 | 53.64506 | 9.98356 | 261 ft | 170 kts | 332° |
| 2026-04-22 12:34 | 53.65572 | 9.97400 | 929 ft | 178 kts | 329° |
| 2026-04-22 12:34 | 53.66655 | 9.96329 | 1708 ft | 182 kts | 327° |
| 2026-04-22 12:34 | 53.67810 | 9.95278 | 2361 ft | 204 kts | 336° |
| 2026-04-22 12:34 | 53.69237 | 9.94376 | 2935 ft | 229 kts | 339° |
| 2026-04-22 12:35 | 53.70757 | 9.93382 | 3733 ft | 239 kts | 333° |
| 2026-04-22 12:35 | 53.72067 | 9.91633 | 4505 ft | 248 kts | 310° |
| 2026-04-22 12:35 | 53.72880 | 9.89042 | 5453 ft | 255 kts | 289° |
| 2026-04-22 12:35 | 53.73057 | 9.85997 | 6277 ft | 268 kts | 267° |
| 2026-04-22 12:36 | 53.72533 | 9.82927 | 7119 ft | 278 kts | 245° |
| 2026-04-22 12:36 | 53.71470 | 9.80146 | 7948 ft | 284 kts | 238° |
| 2026-04-22 12:36 | 53.70414 | 9.77353 | 8862 ft | 286 kts | 242° |
| 2026-04-22 12:36 | 53.69490 | 9.74368 | 9759 ft | 289 kts | 247° |
| 2026-04-22 12:37 | 53.68678 | 9.71228 | 10628 ft | 294 kts | 250° |
| 2026-04-22 12:37 | 53.67919 | 9.67902 | 11082 ft | 313 kts | 252° |
| 2026-04-22 12:37 | 53.67184 | 9.64318 | 11540 ft | 329 kts | 254° |
| 2026-04-22 12:37 | 53.66463 | 9.60599 | 12230 ft | 337 kts | 254° |
| 2026-04-22 12:38 | 53.65615 | 9.56930 | 12976 ft | 344 kts | 244° |
| 2026-04-22 12:38 | 53.64326 | 9.53492 | 13757 ft | 350 kts | 236° |
| 2026-04-22 12:38 | 53.62872 | 9.50134 | 14481 ft | 356 kts | 235° |
| 2026-04-22 12:38 | 53.61392 | 9.46767 | 15155 ft | 360 kts | 236° |
| 2026-04-22 12:39 | 53.59892 | 9.43334 | 15824 ft | 364 kts | 236° |
| 2026-04-22 12:39 | 53.56885 | 9.36402 | 17088 ft | 372 kts | 236° |
| 2026-04-22 12:39 | 53.55351 | 9.32856 | 17675 ft | 377 kts | 236° |
| 2026-04-22 12:40 | 53.53795 | 9.29258 | 18286 ft | 382 kts | 236° |
| 2026-04-22 12:40 | 53.52221 | 9.25621 | 18876 ft | 386 kts | 236° |
| 2026-04-22 12:40 | 53.50627 | 9.21940 | 19427 ft | 390 kts | 236° |
| 2026-04-22 12:40 | 53.49023 | 9.18239 | 19986 ft | 394 kts | 236° |
| 2026-04-22 12:41 | 53.47421 | 9.14551 | 20520 ft | 397 kts | 236° |
| 2026-04-22 12:41 | 53.45780 | 9.10778 | 21062 ft | 401 kts | 236° |
| 2026-04-22 12:41 | 53.44123 | 9.06974 | 21581 ft | 404 kts | 236° |
| 2026-04-22 12:41 | 53.42451 | 9.03142 | 22085 ft | 408 kts | 236° |
| 2026-04-22 12:42 | 53.40784 | 8.99326 | 22563 ft | 412 kts | 236° |
| 2026-04-22 12:42 | 53.39081 | 8.95435 | 23043 ft | 415 kts | 236° |
| 2026-04-22 12:42 | 53.37360 | 8.91510 | 23483 ft | 420 kts | 236° |
| 2026-04-22 12:42 | 53.35615 | 8.87559 | 23928 ft | 423 kts | 236° |
| 2026-04-22 12:43 | 53.34189 | 8.83272 | 24321 ft | 420 kts | 251° |
| 2026-04-22 12:43 | 53.33237 | 8.78638 | 24705 ft | 420 kts | 257° |
| 2026-04-22 12:43 | 53.32448 | 8.73933 | 25067 ft | 422 kts | 258° |
| 2026-04-22 12:43 | 53.31656 | 8.69185 | 25399 ft | 425 kts | 257° |
| 2026-04-22 12:44 | 53.30809 | 8.64485 | 25746 ft | 428 kts | 256° |
| 2026-04-22 12:44 | 53.29881 | 8.59718 | 26116 ft | 430 kts | 255° |
| 2026-04-22 12:44 | 53.28900 | 8.54976 | 26468 ft | 432 kts | 253° |
| 2026-04-22 12:44 | 53.27878 | 8.50236 | 26798 ft | 434 kts | 253° |
| 2026-04-22 12:45 | 53.26879 | 8.45456 | 27124 ft | 436 kts | 255° |
| 2026-04-22 12:45 | 53.25940 | 8.40636 | 27438 ft | 437 kts | 255° |
| 2026-04-22 12:45 | 53.25040 | 8.35839 | 27737 ft | 439 kts | 256° |
| 2026-04-22 12:45 | 53.24134 | 8.30954 | 28036 ft | 441 kts | 256° |
| 2026-04-22 12:46 | 53.23223 | 8.26047 | 28335 ft | 442 kts | 256° |
| 2026-04-22 12:46 | 53.22300 | 8.21117 | 28619 ft | 444 kts | 255° |
| 2026-04-22 12:46 | 53.21372 | 8.16201 | 28862 ft | 446 kts | 255° |
| 2026-04-22 12:46 | 53.20431 | 8.11250 | 29122 ft | 448 kts | 255° |
| 2026-04-22 12:47 | 53.19490 | 8.06278 | 29389 ft | 449 kts | 255° |
| 2026-04-22 12:47 | 53.18561 | 8.01359 | 29642 ft | 451 kts | 255° |
| 2026-04-22 12:47 | 53.17606 | 7.96301 | 29886 ft | 452 kts | 255° |
| 2026-04-22 12:47 | 53.16669 | 7.91344 | 30109 ft | 454 kts | 255° |
| 2026-04-22 12:48 | 53.15716 | 7.86319 | 30344 ft | 455 kts | 255° |
| 2026-04-22 12:48 | 53.14758 | 7.81284 | 30550 ft | 456 kts | 255° |
| 2026-04-22 12:48 | 53.13794 | 7.76231 | 30728 ft | 458 kts | 255° |
| 2026-04-22 12:48 | 53.12824 | 7.71165 | 30895 ft | 459 kts | 255° |
| 2026-04-22 12:49 | 53.11837 | 7.66094 | 31062 ft | 461 kts | 252° |
| 2026-04-22 12:49 | 53.10790 | 7.61047 | 31192 ft | 461 kts | 259° |
| 2026-04-22 12:49 | 53.10611 | 7.55873 | 31324 ft | 455 kts | 276° |
| 2026-04-22 12:49 | 53.10949 | 7.50553 | 31481 ft | 454 kts | 281° |
| 2026-04-22 12:50 | 53.11406 | 7.45410 | 31640 ft | 455 kts | 281° |
| 2026-04-22 12:50 | 53.11822 | 7.40184 | 31836 ft | 455 kts | 279° |
| 2026-04-22 12:50 | 53.12129 | 7.34938 | 32042 ft | 456 kts | 277° |
| 2026-04-22 12:50 | 53.12329 | 7.29635 | 32244 ft | 456 kts | 275° |
| 2026-04-22 12:51 | 53.12447 | 7.24423 | 32438 ft | 456 kts | 274° |
| 2026-04-22 12:51 | 53.12519 | 7.19141 | 32624 ft | 456 kts | 274° |
| 2026-04-22 12:51 | 53.12568 | 7.13845 | 32794 ft | 456 kts | 273° |
| 2026-04-22 12:51 | 53.12608 | 7.08570 | 32995 ft | 455 kts | 273° |
| 2026-04-22 12:52 | 53.12649 | 7.03303 | 33183 ft | 455 kts | 273° |
| 2026-04-22 12:52 | 53.12690 | 6.98046 | 33377 ft | 454 kts | 273° |
| 2026-04-22 12:52 | 53.12719 | 6.94557 | 33509 ft | 454 kts | 273° |
| 2026-04-22 12:52 | 53.12764 | 6.89287 | 33690 ft | 454 kts | 273° |
| 2026-04-22 12:53 | 53.12809 | 6.84024 | 33876 ft | 454 kts | 273° |
| 2026-04-22 12:53 | 53.12867 | 6.77064 | 34119 ft | 453 kts | 273° |
| 2026-04-22 12:53 | 53.12895 | 6.73519 | 34246 ft | 453 kts | 273° |
| 2026-04-22 12:53 | 53.12935 | 6.68269 | 34416 ft | 453 kts | 273° |
| 2026-04-22 12:54 | 53.12972 | 6.63078 | 34547 ft | 452 kts | 273° |
| 2026-04-22 12:54 | 53.13009 | 6.57825 | 34724 ft | 451 kts | 273° |
| 2026-04-22 12:54 | 53.13042 | 6.52612 | 34890 ft | 450 kts | 273° |
| 2026-04-22 12:54 | 53.13072 | 6.47376 | 35014 ft | 450 kts | 273° |
| 2026-04-22 12:55 | 53.13100 | 6.42175 | 35126 ft | 451 kts | 273° |
| 2026-04-22 12:55 | 53.13128 | 6.37010 | 35260 ft | 451 kts | 273° |
| 2026-04-22 12:55 | 53.13154 | 6.31778 | 35382 ft | 451 kts | 272° |
| 2026-04-22 12:55 | 53.13178 | 6.26546 | 35501 ft | 451 kts | 272° |
| 2026-04-22 12:56 | 53.13201 | 6.21303 | 35629 ft | 451 kts | 272° |
| 2026-04-22 12:56 | 53.13221 | 6.16073 | 35738 ft | 451 kts | 272° |
| 2026-04-22 12:56 | 53.13239 | 6.10846 | 35830 ft | 451 kts | 272° |
| 2026-04-22 12:56 | 53.13256 | 6.05631 | 36021 ft | 449 kts | 272° |
| 2026-04-22 12:57 | 53.13269 | 6.00509 | 36157 ft | 448 kts | 272° |
| 2026-04-22 12:57 | 53.13278 | 5.95302 | 36259 ft | 449 kts | 272° |
| 2026-04-22 12:57 | 53.13285 | 5.90088 | 36352 ft | 449 kts | 272° |
| 2026-04-22 12:58 | 53.13296 | 5.79653 | 36533 ft | 449 kts | 272° |
| 2026-04-22 12:58 | 53.13300 | 5.74442 | 36637 ft | 449 kts | 272° |
| 2026-04-22 12:58 | 53.13301 | 5.69300 | 36730 ft | 449 kts | 272° |
| 2026-04-22 12:59 | 53.13296 | 5.58876 | 36883 ft | 449 kts | 272° |
| 2026-04-22 12:59 | 53.13292 | 5.53670 | 37027 ft | 449 kts | 272° |
| 2026-04-22 12:59 | 53.13284 | 5.48470 | 37122 ft | 448 kts | 271° |
| 2026-04-22 13:00 | 53.13259 | 5.38126 | 37283 ft | 449 kts | 271° |
| 2026-04-22 13:00 | 53.13228 | 5.27726 | 37490 ft | 448 kts | 271° |
| 2026-04-22 13:01 | 53.13202 | 5.21060 | 37596 ft | 448 kts | 271° |
| 2026-04-22 13:01 | 53.13155 | 5.10655 | 37744 ft | 448 kts | 271° |
| 2026-04-22 13:02 | 53.13101 | 5.00284 | 37931 ft | 447 kts | 271° |
| 2026-04-22 13:02 | 53.13037 | 4.89925 | 38063 ft | 447 kts | 271° |
| 2026-04-22 13:03 | 53.12965 | 4.79614 | 38186 ft | 448 kts | 271° |
| 2026-04-22 13:03 | 53.12899 | 4.70987 | 38286 ft | 448 kts | 271° |
| 2026-04-22 13:04 | 53.12829 | 4.62567 | 38401 ft | 448 kts | 271° |
| 2026-04-22 13:04 | 53.12736 | 4.52169 | 38442 ft | 449 kts | 271° |
| 2026-04-22 13:05 | 53.12639 | 4.41811 | 38446 ft | 450 kts | 271° |
| 2026-04-22 13:05 | 53.12532 | 4.31392 | 38443 ft | 450 kts | 271° |
| 2026-04-22 13:06 | 53.12416 | 4.20973 | 38441 ft | 450 kts | 271° |
| 2026-04-22 13:06 | 53.12289 | 4.10542 | 38444 ft | 450 kts | 270° |
| 2026-04-22 13:07 | 53.12157 | 4.00146 | 38439 ft | 448 kts | 270° |
| 2026-04-22 13:07 | 53.12017 | 3.89856 | 38441 ft | 447 kts | 270° |
| 2026-04-22 13:08 | 53.11862 | 3.79512 | 38443 ft | 446 kts | 270° |
| 2026-04-22 13:08 | 53.11700 | 3.69159 | 38445 ft | 449 kts | 270° |
| 2026-04-22 13:09 | 53.11536 | 3.58735 | 38444 ft | 451 kts | 270° |
| 2026-04-22 13:09 | 53.11398 | 3.50022 | 38445 ft | 453 kts | 270° |
| 2026-04-22 13:10 | 53.11263 | 3.41542 | 38434 ft | 454 kts | 270° |
| 2026-04-22 13:10 | 53.11064 | 3.30999 | 38435 ft | 456 kts | 268° |
| 2026-04-22 13:11 | 53.11250 | 3.20482 | 38430 ft | 455 kts | 279° |
| 2026-04-22 13:11 | 53.12248 | 3.10073 | 38428 ft | 456 kts | 281° |
| 2026-04-22 13:12 | 53.13195 | 2.99633 | 38445 ft | 457 kts | 279° |
| 2026-04-22 13:12 | 53.13985 | 2.89151 | 38446 ft | 458 kts | 278° |
| 2026-04-22 13:13 | 53.14695 | 2.78601 | 38448 ft | 457 kts | 278° |
| 2026-04-22 13:13 | 53.15376 | 2.68120 | 38446 ft | 457 kts | 278° |
| 2026-04-22 13:14 | 53.16060 | 2.57545 | 38448 ft | 457 kts | 278° |
| 2026-04-22 13:14 | 53.16739 | 2.47015 | 38450 ft | 457 kts | 278° |
| 2026-04-22 13:15 | 53.17403 | 2.36583 | 38452 ft | 456 kts | 278° |
| 2026-04-22 13:15 | 53.18063 | 2.26035 | 38453 ft | 456 kts | 278° |
| 2026-04-22 13:16 | 53.18714 | 2.15482 | 38449 ft | 456 kts | 278° |
| 2026-04-22 13:16 | 53.19354 | 2.04971 | 38456 ft | 456 kts | 277° |
| 2026-04-22 13:17 | 53.19985 | 1.94504 | 38457 ft | 454 kts | 278° |
| 2026-04-22 13:17 | 53.20606 | 1.84007 | 38454 ft | 453 kts | 277° |
| 2026-04-22 13:18 | 53.21211 | 1.73538 | 38460 ft | 453 kts | 277° |
| 2026-04-22 13:18 | 53.21807 | 1.63120 | 38446 ft | 453 kts | 277° |
| 2026-04-22 13:19 | 53.22398 | 1.52633 | 38444 ft | 453 kts | 277° |
| 2026-04-22 13:19 | 53.22979 | 1.42214 | 38062 ft | 447 kts | 277° |
| 2026-04-22 13:19 | 53.23268 | 1.37045 | 37581 ft | 447 kts | 277° |
| 2026-04-22 13:20 | 53.23559 | 1.31874 | 37110 ft | 447 kts | 277° |
| 2026-04-22 13:20 | 53.23851 | 1.26771 | 36654 ft | 447 kts | 277° |
| 2026-04-22 13:20 | 53.24149 | 1.21596 | 36202 ft | 447 kts | 277° |
| 2026-04-22 13:20 | 53.24447 | 1.16437 | 35757 ft | 446 kts | 277° |
| 2026-04-22 13:21 | 53.24744 | 1.11282 | 35324 ft | 445 kts | 277° |
| 2026-04-22 13:21 | 53.25037 | 1.06128 | 34896 ft | 445 kts | 277° |
| 2026-04-22 13:21 | 53.25326 | 1.00986 | 34457 ft | 445 kts | 277° |
| 2026-04-22 13:21 | 53.25532 | 0.95824 | 33962 ft | 444 kts | 274° |
| 2026-04-22 13:22 | 53.25649 | 0.90748 | 33474 ft | 442 kts | 275° |
| 2026-04-22 13:22 | 53.25803 | 0.85610 | 32990 ft | 442 kts | 276° |
| 2026-04-22 13:22 | 53.26002 | 0.80467 | 32510 ft | 443 kts | 276° |
| 2026-04-22 13:22 | 53.26231 | 0.75319 | 32043 ft | 444 kts | 277° |
| 2026-04-22 13:23 | 53.26477 | 0.70165 | 31581 ft | 445 kts | 277° |
| 2026-04-22 13:23 | 53.26728 | 0.65075 | 31137 ft | 446 kts | 277° |
| 2026-04-22 13:23 | 53.26989 | 0.59889 | 30687 ft | 447 kts | 278° |
| 2026-04-22 13:23 | 53.27602 | 0.54847 | 30202 ft | 440 kts | 291° |
| 2026-04-22 13:24 | 53.28613 | 0.50012 | 29667 ft | 439 kts | 291° |
| 2026-04-22 13:24 | 53.29596 | 0.45191 | 29150 ft | 436 kts | 290° |
| 2026-04-22 13:24 | 53.30487 | 0.40409 | 28663 ft | 434 kts | 288° |
| 2026-04-22 13:24 | 53.31289 | 0.35547 | 28174 ft | 432 kts | 286° |
| 2026-04-22 13:25 | 53.32054 | 0.30701 | 27694 ft | 428 kts | 286° |
| 2026-04-22 13:25 | 53.32706 | 0.25850 | 27218 ft | 426 kts | 281° |
| 2026-04-22 13:25 | 53.33010 | 0.20919 | 26757 ft | 426 kts | 274° |
| 2026-04-22 13:25 | 53.32953 | 0.15948 | 26308 ft | 442 kts | 266° |
| 2026-04-22 13:26 | 53.32572 | 0.10734 | 25860 ft | 458 kts | 262° |
| 2026-04-22 13:26 | 53.31991 | 0.05471 | 25422 ft | 461 kts | 259° |
| 2026-04-22 13:26 | 53.31314 | 0.00229 | 24986 ft | 461 kts | 257° |
| 2026-04-22 13:26 | 53.30593 | -0.04994 | 24554 ft | 460 kts | 259° |
| 2026-04-22 13:27 | 53.29865 | -0.10187 | 24128 ft | 458 kts | 259° |
| 2026-04-22 13:27 | 53.29143 | -0.15371 | 23657 ft | 455 kts | 259° |
| 2026-04-22 13:27 | 53.28433 | -0.20528 | 23159 ft | 453 kts | 258° |
| 2026-04-22 13:27 | 53.27741 | -0.25586 | 22677 ft | 451 kts | 258° |
| 2026-04-22 13:28 | 53.27050 | -0.30680 | 22195 ft | 448 kts | 257° |
| 2026-04-22 13:28 | 53.26363 | -0.35741 | 21724 ft | 446 kts | 257° |
| 2026-04-22 13:28 | 53.25672 | -0.40816 | 21258 ft | 444 kts | 256° |
| 2026-04-22 13:28 | 53.24986 | -0.45834 | 20794 ft | 442 kts | 256° |
| 2026-04-22 13:29 | 53.24531 | -0.49152 | 20484 ft | 441 kts | 256° |
| 2026-04-22 13:29 | 53.24037 | -0.52729 | 20180 ft | 440 kts | 256° |
| 2026-04-22 13:29 | 53.23346 | -0.57725 | 19741 ft | 446 kts | 255° |
| 2026-04-22 13:29 | 53.22656 | -0.62817 | 19306 ft | 452 kts | 254° |
| 2026-04-22 13:30 | 53.21976 | -0.67950 | 18890 ft | 452 kts | 255° |
| 2026-04-22 13:30 | 53.21303 | -0.73073 | 18407 ft | 450 kts | 255° |
| 2026-04-22 13:30 | 53.20629 | -0.78147 | 17919 ft | 447 kts | 255° |
| 2026-04-22 13:30 | 53.19951 | -0.83141 | 17445 ft | 444 kts | 254° |
| 2026-04-22 13:31 | 53.19259 | -0.88147 | 16972 ft | 442 kts | 254° |
| 2026-04-22 13:31 | 53.18560 | -0.93130 | 16505 ft | 439 kts | 254° |
| 2026-04-22 13:31 | 53.17859 | -0.98076 | 16040 ft | 436 kts | 253° |
| 2026-04-22 13:31 | 53.17157 | -1.02989 | 15593 ft | 434 kts | 254° |
| 2026-04-22 13:32 | 53.16458 | -1.07877 | 15141 ft | 431 kts | 253° |
| 2026-04-22 13:32 | 53.15770 | -1.12677 | 14708 ft | 429 kts | 253° |
| 2026-04-22 13:32 | 53.15072 | -1.17507 | 14438 ft | 429 kts | 253° |
| 2026-04-22 13:32 | 53.14609 | -1.20711 | 14427 ft | 428 kts | 253° |
| 2026-04-22 13:33 | 53.14012 | -1.24842 | 14429 ft | 426 kts | 253° |
| 2026-04-22 13:33 | 53.13312 | -1.29652 | 14372 ft | 425 kts | 253° |
| 2026-04-22 13:33 | 53.12611 | -1.34430 | 13996 ft | 423 kts | 253° |
| 2026-04-22 13:33 | 53.11909 | -1.39205 | 13494 ft | 422 kts | 253° |
| 2026-04-22 13:34 | 53.11228 | -1.43872 | 12985 ft | 421 kts | 253° |
| 2026-04-22 13:34 | 53.10537 | -1.48613 | 12495 ft | 419 kts | 253° |
| 2026-04-22 13:34 | 53.09852 | -1.53306 | 12017 ft | 416 kts | 253° |
| 2026-04-22 13:34 | 53.09179 | -1.57972 | 11538 ft | 414 kts | 255° |
| 2026-04-22 13:35 | 53.08818 | -1.62732 | 11067 ft | 416 kts | 265° |
| 2026-04-22 13:35 | 53.08898 | -1.67555 | 10620 ft | 417 kts | 270° |
| 2026-04-22 13:35 | 53.09104 | -1.72373 | 10411 ft | 416 kts | 271° |
| 2026-04-22 13:35 | 53.09347 | -1.77181 | 10378 ft | 415 kts | 272° |
| 2026-04-22 13:36 | 53.09597 | -1.81940 | 10374 ft | 413 kts | 272° |
| 2026-04-22 13:36 | 53.09887 | -1.86664 | 10366 ft | 414 kts | 275° |
| 2026-04-22 13:36 | 53.10317 | -1.91376 | 10154 ft | 412 kts | 277° |
| 2026-04-22 13:36 | 53.10825 | -1.96094 | 9727 ft | 414 kts | 278° |
| 2026-04-22 13:37 | 53.11372 | -2.00793 | 9208 ft | 412 kts | 279° |
| 2026-04-22 13:37 | 53.11928 | -2.05410 | 8691 ft | 411 kts | 279° |
| 2026-04-22 13:37 | 53.12499 | -2.10112 | 8179 ft | 405 kts | 280° |
| 2026-04-22 13:37 | 53.12856 | -2.13084 | 7843 ft | 387 kts | 279° |
| 2026-04-22 13:38 | 53.13465 | -2.18650 | 7181 ft | 347 kts | 277° |
| 2026-04-22 13:38 | 53.13960 | -2.24819 | 6308 ft | 299 kts | 272° |
| 2026-04-22 13:38 | 53.14135 | -2.28141 | 5793 ft | 282 kts | 271° |
| 2026-04-22 13:39 | 53.14266 | -2.31335 | 5274 ft | 270 kts | 272° |
| 2026-04-22 13:39 | 53.14488 | -2.34381 | 4786 ft | 258 kts | 276° |
| 2026-04-22 13:39 | 53.14764 | -2.37267 | 4282 ft | 247 kts | 277° |
| 2026-04-22 13:39 | 53.15024 | -2.40048 | 3779 ft | 238 kts | 277° |
| 2026-04-22 13:40 | 53.15384 | -2.42690 | 3263 ft | 229 kts | 291° |
| 2026-04-22 13:40 | 53.15927 | -2.45071 | 2944 ft | 215 kts | 294° |
| 2026-04-22 13:40 | 53.16464 | -2.47315 | 2889 ft | 198 kts | 296° |
| 2026-04-22 13:40 | 53.17195 | -2.49138 | 2973 ft | 184 kts | 319° |
| 2026-04-22 13:41 | 53.18101 | -2.50606 | 2992 ft | 180 kts | 327° |
| 2026-04-22 13:41 | 53.19041 | -2.51864 | 2967 ft | 165 kts | 333° |
| 2026-04-22 13:41 | 53.20019 | -2.52672 | 2981 ft | 156 kts | 350° |
| 2026-04-22 13:41 | 53.21042 | -2.53247 | 2978 ft | 154 kts | 353° |
| 2026-04-22 13:42 | 53.22017 | -2.53184 | 2950 ft | 133 kts | 39° |
| 2026-04-22 13:42 | 53.22793 | -2.52313 | 3010 ft | 143 kts | 46° |
| 2026-04-22 13:42 | 53.23536 | -2.51083 | 3011 ft | 156 kts | 54° |
| 2026-04-22 13:42 | 53.24246 | -2.49695 | 2996 ft | 158 kts | 56° |
| 2026-04-22 13:43 | 53.24936 | -2.48298 | 2858 ft | 157 kts | 56° |
| 2026-04-22 13:43 | 53.25623 | -2.46889 | 2628 ft | 156 kts | 57° |
| 2026-04-22 13:43 | 53.26308 | -2.45469 | 2409 ft | 157 kts | 56° |
| 2026-04-22 13:43 | 53.26994 | -2.44042 | 2179 ft | 157 kts | 56° |
| 2026-04-22 13:44 | 53.27681 | -2.42613 | 1967 ft | 156 kts | 56° |
| 2026-04-22 13:44 | 53.28346 | -2.41230 | 1749 ft | 155 kts | 56° |
| 2026-04-22 13:44 | 53.29026 | -2.39811 | 1539 ft | 156 kts | 56° |
| 2026-04-22 13:44 | 53.29703 | -2.38397 | 1327 ft | 156 kts | 56° |
| 2026-04-22 13:45 | 53.29978 | -2.37818 | 1263 ft | 155 kts | 58° |
| 2026-04-22 13:45 | 53.30521 | -2.36610 | 1099 ft | 143 kts | 57° |
| 2026-04-22 13:45 | 53.31123 | -2.35352 | 907 ft | 135 kts | 57° |
| 2026-04-22 13:45 | 53.31704 | -2.34152 | 736 ft | 130 kts | 54° |
| 2026-04-22 13:46 | 53.32260 | -2.33006 | 606 ft | 128 kts | 56° |
| 2026-04-22 13:46 | 53.32822 | -2.31839 | 367 ft | 131 kts | 55° |
| 2026-04-22 13:46 | 53.33107 | -2.31252 | 288 ft | 126 kts | 56° |
| 2026-04-22 13:46 | 53.33525 | -2.30382 | 240 ft | 113 kts | 51° |
| 2026-04-22 13:47 | 53.33946 | -2.29487 | 245 ft | 85 kts | 53° |
| 2026-04-22 13:47 | 53.34269 | -2.28831 | 254 ft | 52 kts | 49° |
| 2026-04-22 13:47 | 53.34478 | -2.28558 | 259 ft | 35 kts | 25° |
| 2026-04-22 13:47 | 53.34647 | -2.28444 | 263 ft | 0 kts | 20° |
| 2026-04-22 13:48 | 53.34650 | -2.28442 | 263 ft | 2 kts | 20° |
| 2026-04-22 13:48 | 53.34697 | -2.28412 | 264 ft | 13 kts | 25° |
| 2026-04-22 13:49 | 53.34778 | -2.28272 | 263 ft | 21 kts | 50° |
| 2026-04-22 13:49 | 53.34880 | -2.28054 | 263 ft | 28 kts | 48° |
| 2026-04-22 13:49 | 53.35011 | -2.27780 | 263 ft | 31 kts | 51° |
| 2026-04-22 13:49 | 53.35148 | -2.27498 | 262 ft | 31 kts | 51° |
| 2026-04-22 13:50 | 53.35208 | -2.27374 | 261 ft | 5 kts | 51° |
| 2026-04-22 13:50 | 53.35243 | -2.27302 | 259 ft | 19 kts | 51° |
| 2026-04-22 13:50 | 53.35298 | -2.27198 | 255 ft | 12 kts | 29° |
| 2026-04-22 13:50 | 53.35409 | -2.27226 | 247 ft | 25 kts | 342° |
| 2026-04-22 13:51 | 53.35518 | -2.27380 | 247 ft | 24 kts | 315° |
| 2026-04-22 13:51 | 53.35570 | -2.27454 | 248 ft | 0 kts | 320° |
| 2026-04-22 13:52 | 53.35571 | -2.27456 | 248 ft | 1 kts | 320° |
| 2026-04-22 13:52 | 53.35580 | -2.27469 | 248 ft | 2 kts | 320° |
| 2026-04-22 13:52 | 53.35597 | -2.27491 | 248 ft | 4 kts | 320° |
| 2026-04-22 13:52 | 53.35620 | -2.27523 | 249 ft | 5 kts | 320° |
| 2026-04-22 13:53 | 53.35681 | -2.27601 | 250 ft | 18 kts | 329° |
| 2026-04-22 13:53 | 53.35817 | -2.27739 | 252 ft | 28 kts | 315° |
| 2026-04-22 13:53 | 53.35970 | -2.27837 | 252 ft | 27 kts | 8° |
| 2026-04-22 13:53 | 53.36151 | -2.27988 | 253 ft | 36 kts | 315° |
| 2026-04-22 13:54 | 53.36344 | -2.28312 | 255 ft | 40 kts | 314° |
| 2026-04-22 13:54 | 53.36543 | -2.28649 | 256 ft | 41 kts | 315° |
| 2026-04-22 13:54 | 53.36674 | -2.28929 | 257 ft | 23 kts | 327° |
| 2026-04-22 13:54 | 53.36766 | -2.29045 | 257 ft | 5 kts | 6° |
| 2026-04-22 13:55 | 53.36837 | -2.28989 | 257 ft | 17 kts | 42° |
| 2026-04-22 13:55 | 53.36914 | -2.28857 | 255 ft | 3 kts | 61° |
| 2026-04-22 13:55 | 53.36917 | -2.28833 | 255 ft | 1 kts | 108° |
| 2026-04-22 13:55 | 53.36896 | -2.28798 | 255 ft | 6 kts | 135° |
| 2026-04-22 13:56 | 53.36891 | -2.28790 | 255 ft | 0 kts | 134° |